Time;durP1;ratioP1;P1;durP2;ratioP2;P2;SDS_P1;SDS_P2;PMS_P1;PMS_P2;Temp;Humidity;BMP_temperature;BMP_pressure;BME280_temperature;BME280_humidity;BME280_pressure;Samples;Min_cycle;Max_cycle;Signal;HPM_P1;HPM_P2
2021/12/26 00:01:31;;;;;;;25.80;18.77;;;;;;;;;;5026749;28;20072;-73
2021/12/26 00:04:13;;;;;;;26.77;16.08;;;;;;;;;;5027142;28;20026;-74
2021/12/26 00:06:40;;;;;;;17.13;11.65;;;;;;;;;;5027842;28;20049;-72
2021/12/26 00:09:06;;;;;;;17.48;11.40;;;;;;;;;;5025593;28;20469;-74
2021/12/26 00:11:35;;;;;;;20.45;15.02;;;;;;;;;;5026677;28;20085;-74
2021/12/26 00:14:02;;;;;;;18.83;13.52;;;;;;;;;;5027370;28;20045;-72
2021/12/26 00:16:37;;;;;;;13.27;9.32;;;;;;;;;;5042301;28;20113;-72
2021/12/26 00:19:03;;;;;;;16.45;12.75;;;;;;;;;;5023834;28;20458;-71
2021/12/26 00:21:38;;;;;;;20.95;10.60;;;;;;;;;;5026648;28;20026;-74
2021/12/26 00:24:05;;;;;;;23.13;11.82;;;;;;;;;;5026494;28;20040;-75
2021/12/26 00:26:32;;;;;;;18.40;11.07;;;;;;;;;;5025542;28;20032;-74
2021/12/26 00:28:59;;;;;;;13.27;8.57;;;;;;;;;;5025537;28;20068;-76
2021/12/26 00:31:25;;;;;;;10.73;8.15;;;;;;;;;;5026522;28;20040;-72
2021/12/26 00:33:51;;;;;;;17.80;10.32;;;;;;;;;;5027323;28;20040;-72
2021/12/26 00:36:20;;;;;;;11.77;7.72;;;;;;;;;;5027573;28;20048;-74
2021/12/26 00:38:47;;;;;;;12.55;7.65;;;;;;;;;;5026016;28;20022;-73
2021/12/26 00:41:13;;;;;;;9.70;6.63;;;;;;;;;;5027606;28;20033;-74
2021/12/26 00:43:39;;;;;;;14.55;7.13;;;;;;;;;;5027195;28;20029;-72
2021/12/26 00:46:11;;;;;;;11.57;7.32;;;;;;;;;;5026499;28;20040;-73
2021/12/26 00:48:38;;;;;;;14.45;9.55;;;;;;;;;;5026394;28;20389;-73
2021/12/26 00:51:04;;;;;;;12.70;9.38;;;;;;;;;;5027394;28;20056;-73
2021/12/26 00:53:30;;;;;;;13.05;9.40;;;;;;;;;;5025216;28;20034;-72
2021/12/26 00:55:56;;;;;;;16.70;11.10;;;;;;;;;;5024860;28;20093;-73
2021/12/26 00:58:28;;;;;;;20.63;12.07;;;;;;;;;;5024930;28;20041;-72
2021/12/26 01:01:04;;;;;;;19.92;11.27;;;;;;;;;;5025510;28;20091;-72
2021/12/26 01:03:30;;;;;;;12.52;9.00;;;;;;;;;;5040237;28;20040;-73
2021/12/26 01:06:24;;;;;;;14.77;8.23;;;;;;;;;;5025908;28;20026;-72
2021/12/26 01:09:02;;;;;;;13.25;7.78;;;;;;;;;;5034734;28;20045;-73
2021/12/26 01:11:39;;;;;;;17.35;9.27;;;;;;;;;;5027327;28;20033;-73
2021/12/26 01:14:25;;;;;;;15.80;9.18;;;;;;;;;;5025016;28;20046;-74
2021/12/26 01:17:00;;;;;;;14.85;8.95;;;;;;;;;;5025338;28;20093;-73
2021/12/26 01:19:32;;;;;;;16.90;9.68;;;;;;;;;;5025861;28;20030;-76
2021/12/26 01:21:59;;;;;;;13.73;8.77;;;;;;;;;;5025624;28;20030;-73
2021/12/26 01:24:28;;;;;;;14.60;9.88;;;;;;;;;;5025614;28;20125;-72
2021/12/26 01:26:54;;;;;;;20.13;10.48;;;;;;;;;;5008111;28;20211;-74
2021/12/26 01:29:20;;;;;;;17.55;10.25;;;;;;;;;;5024690;28;20034;-74
2021/12/26 01:31:46;;;;;;;21.23;10.05;;;;;;;;;;5026112;28;20026;-75
2021/12/26 01:34:13;;;;;;;15.45;9.05;;;;;;;;;;5024923;28;20109;-74
2021/12/26 01:36:42;;;;;;;14.93;8.50;;;;;;;;;;5025928;28;20113;-74
2021/12/26 01:39:15;;;;;;;14.88;9.23;;;;;;;;;;5025403;28;20034;-74
2021/12/26 01:41:43;;;;;;;15.18;10.70;;;;;;;;;;5027480;28;20038;-74
2021/12/26 01:44:14;;;;;;;18.48;10.68;;;;;;;;;;5029522;28;20036;-73
2021/12/26 01:46:50;;;;;;;18.15;9.80;;;;;;;;;;5029894;28;20034;-75
2021/12/26 01:49:25;;;;;;;20.65;11.07;;;;;;;;;;5026664;28;20026;-72
2021/12/26 01:51:52;;;;;;;20.98;10.93;;;;;;;;;;5029692;28;20028;-73
2021/12/26 01:54:29;;;;;;;16.73;10.10;;;;;;;;;;5044434;28;20072;-73
2021/12/26 01:56:55;;;;;;;21.17;10.63;;;;;;;;;;5029058;28;20029;-73
2021/12/26 01:59:21;;;;;;;20.40;10.43;;;;;;;;;;5030363;28;20032;-72
2021/12/26 02:02:05;;;;;;;19.13;10.60;;;;;;;;;;5028908;28;20042;-75
2021/12/26 02:04:32;;;;;;;16.33;9.73;;;;;;;;;;5028653;28;20030;-73
2021/12/26 02:07:04;;;;;;;18.13;11.25;;;;;;;;;;5029386;28;20099;-74
2021/12/26 02:09:30;;;;;;;17.38;10.93;;;;;;;;;;5028992;28;20033;-73
2021/12/26 02:11:56;;;;;;;25.35;12.52;;;;;;;;;;5028646;28;20459;-74
2021/12/26 02:14:23;;;;;;;20.13;12.77;;;;;;;;;;5027761;28;20061;-76
2021/12/26 02:16:54;;;;;;;19.42;11.63;;;;;;;;;;5029567;28;20377;-73
2021/12/26 02:19:20;;;;;;;21.30;11.45;;;;;;;;;;5028797;28;20022;-75
2021/12/26 02:22:09;;;;;;;29.58;14.82;;;;;;;;;;5028308;28;20022;-76
2021/12/26 02:30:12;;;;;;;22.58;10.57;;;;;;;;;;5011912;28;20038;-76
2021/12/26 02:32:40;;;;;;;21.08;13.30;;;;;;;;;;5028197;28;20034;-73
2021/12/26 02:35:07;;;;;;;41.78;28.13;;;;;;;;;;5028919;28;20026;-73
2021/12/26 02:37:36;;;;;;;34.17;23.27;;;;;;;;;;5028346;28;20029;-76
2021/12/26 02:40:04;;;;;;;24.10;19.42;;;;;;;;;;5028023;28;20104;-73
2021/12/26 02:42:33;;;;;;;21.48;16.75;;;;;;;;;;5042584;28;20393;-75
2021/12/26 02:45:00;;;;;;;11.18;8.07;;;;;;;;;;5027367;28;20481;-73
2021/12/26 02:47:55;;;;;;;12.75;7.72;;;;;;;;;;5028136;28;20072;-73
2021/12/26 02:50:24;;;;;;;13.03;7.57;;;;;;;;;;5026446;28;20030;-74
2021/12/26 02:52:51;;;;;;;14.30;7.10;;;;;;;;;;5027740;28;20037;-74
2021/12/26 02:55:19;;;;;;;8.13;5.80;;;;;;;;;;5030034;28;20026;-73
2021/12/26 02:58:17;;;;;;;12.88;5.78;;;;;;;;;;5030324;28;20030;-73
2021/12/26 03:00:47;;;;;;;13.70;6.47;;;;;;;;;;5012032;28;20042;-73
2021/12/26 03:03:13;;;;;;;9.15;5.20;;;;;;;;;;5027399;28;20030;-72
2021/12/26 03:05:40;;;;;;;8.15;5.22;;;;;;;;;;5026820;28;20388;-73
2021/12/26 03:08:08;;;;;;;7.45;4.82;;;;;;;;;;5025367;28;20033;-72
2021/12/26 03:10:39;;;;;;;13.68;7.55;;;;;;;;;;5027887;28;20022;-74
2021/12/26 03:13:12;;;;;;;13.75;8.63;;;;;;;;;;5028475;28;20508;-74
2021/12/26 03:15:39;;;;;;;12.80;6.28;;;;;;;;;;5028834;28;20017;-77
2021/12/26 03:18:05;;;;;;;11.00;5.18;;;;;;;;;;5027967;28;20049;-73
2021/12/26 03:20:48;;;;;;;8.07;4.72;;;;;;;;;;5028285;28;20105;-74
2021/12/26 03:23:16;;;;;;;7.88;4.97;;;;;;;;;;5027700;28;20030;-73
2021/12/26 03:25:42;;;;;;;5.28;3.70;;;;;;;;;;5028047;28;20087;-74
2021/12/26 03:28:10;;;;;;;9.40;4.35;;;;;;;;;;5026175;28;20037;-73
2021/12/26 03:30:37;;;;;;;7.07;3.45;;;;;;;;;;5026840;28;20049;-74
2021/12/26 03:33:05;;;;;;;8.48;3.45;;;;;;;;;;5028677;28;20034;-74
2021/12/26 03:36:00;;;;;;;11.27;4.63;;;;;;;;;;5026360;28;20026;-74
2021/12/26 03:38:30;;;;;;;7.60;3.20;;;;;;;;;;5027067;28;20022;-74
2021/12/26 03:40:57;;;;;;;7.50;3.08;;;;;;;;;;5028070;28;20030;-75
2021/12/26 03:43:23;;;;;;;5.60;3.15;;;;;;;;;;5027925;28;20029;-76
2021/12/26 03:45:50;;;;;;;7.97;2.97;;;;;;;;;;5026325;28;20029;-75
2021/12/26 03:48:17;;;;;;;5.70;2.42;;;;;;;;;;5027342;28;20045;-73
2021/12/26 03:50:43;;;;;;;3.65;1.80;;;;;;;;;;5026973;28;20033;-74
2021/12/26 03:53:16;;;;;;;4.85;2.47;;;;;;;;;;5026841;28;20473;-75
2021/12/26 03:55:42;;;;;;;6.93;2.13;;;;;;;;;;5026042;28;20049;-73
2021/12/26 03:58:08;;;;;;;7.40;2.20;;;;;;;;;;5026923;28;20026;-76
2021/12/26 04:00:35;;;;;;;7.10;2.40;;;;;;;;;;5027354;28;20101;-75
2021/12/26 04:03:01;;;;;;;8.63;2.25;;;;;;;;;;5025434;28;20032;-72
2021/12/26 04:05:38;;;;;;;5.75;2.10;;;;;;;;;;5025035;28;20034;-73
2021/12/26 04:08:04;;;;;;;8.02;2.35;;;;;;;;;;5025879;28;20033;-75
2021/12/26 04:10:30;;;;;;;5.80;2.45;;;;;;;;;;5026848;28;20037;-73
2021/12/26 04:12:57;;;;;;;4.88;2.53;;;;;;;;;;5025524;28;20038;-75
2021/12/26 04:15:30;;;;;;;7.13;2.25;;;;;;;;;;5024288;28;20048;-74
2021/12/26 04:18:00;;;;;;;6.97;2.30;;;;;;;;;;5026189;28;20030;-75
2021/12/26 04:20:58;;;;;;;6.05;2.75;;;;;;;;;;5024684;28;20024;-72
2021/12/26 04:23:33;;;;;;;11.82;2.83;;;;;;;;;;5025853;28;20117;-74
2021/12/26 04:25:59;;;;;;;6.75;3.05;;;;;;;;;;5024941;28;20026;-74
2021/12/26 04:28:25;;;;;;;8.93;3.33;;;;;;;;;;5026086;28;20030;-74
2021/12/26 04:30:53;;;;;;;11.13;2.75;;;;;;;;;;5024408;28;20061;-76
2021/12/26 04:33:19;;;;;;;5.47;2.50;;;;;;;;;;5025820;28;20017;-72
2021/12/26 04:35:45;;;;;;;8.23;2.50;;;;;;;;;;5023967;28;20072;-74
2021/12/26 04:38:11;;;;;;;6.00;2.40;;;;;;;;;;5026632;28;20054;-73
2021/12/26 04:40:37;;;;;;;8.50;3.13;;;;;;;;;;5025798;28;20030;-73
2021/12/26 04:43:06;;;;;;;5.45;2.78;;;;;;;;;;5026790;28;20080;-73
2021/12/26 04:45:32;;;;;;;8.48;2.17;;;;;;;;;;5026945;28;20105;-72
2021/12/26 04:48:01;;;;;;;4.65;2.08;;;;;;;;;;5026816;28;20037;-73
2021/12/26 04:50:28;;;;;;;9.55;2.95;;;;;;;;;;5025070;28;20025;-74
2021/12/26 04:52:55;;;;;;;6.78;3.30;;;;;;;;;;5025680;28;20038;-75
2021/12/26 04:55:30;;;;;;;8.57;2.03;;;;;;;;;;5024568;28;20052;-73
2021/12/26 04:57:57;;;;;;;8.25;2.83;;;;;;;;;;5026462;28;20026;-73
2021/12/26 05:00:26;;;;;;;6.07;2.58;;;;;;;;;;5024698;28;20046;-75
2021/12/26 05:02:53;;;;;;;4.85;2.30;;;;;;;;;;5025902;28;20025;-75
2021/12/26 05:05:19;;;;;;;6.55;2.28;;;;;;;;;;5024116;28;20499;-76
2021/12/26 05:07:51;;;;;;;9.05;3.63;;;;;;;;;;5024815;28;20030;-72
2021/12/26 05:10:20;;;;;;;8.60;3.30;;;;;;;;;;5023409;28;20068;-72
2021/12/26 05:12:47;;;;;;;6.60;2.85;;;;;;;;;;5023083;28;20477;-73
2021/12/26 05:15:15;;;;;;;9.63;2.85;;;;;;;;;;5023621;28;20049;-72
2021/12/26 05:17:41;;;;;;;6.20;2.70;;;;;;;;;;5024801;28;20053;-72
2021/12/26 05:20:12;;;;;;;12.25;3.53;;;;;;;;;;5023459;28;20053;-74
2021/12/26 05:22:38;;;;;;;9.13;3.17;;;;;;;;;;5022346;28;20032;-73
2021/12/26 05:25:06;;;;;;;6.80;2.75;;;;;;;;;;5022060;28;20040;-75
2021/12/26 05:27:32;;;;;;;6.82;2.95;;;;;;;;;;5023966;28;20018;-75
2021/12/26 05:29:59;;;;;;;5.00;2.83;;;;;;;;;;5023008;28;20097;-72
2021/12/26 05:32:25;;;;;;;6.25;3.72;;;;;;;;;;5022217;28;20056;-76
2021/12/26 05:35:00;;;;;;;6.75;2.83;;;;;;;;;;5024232;28;20030;-73
2021/12/26 05:37:26;;;;;;;9.70;2.95;;;;;;;;;;5024284;28;20037;-73
2021/12/26 05:39:53;;;;;;;4.13;2.42;;;;;;;;;;5024376;28;20065;-73
2021/12/26 05:42:23;;;;;;;4.72;2.40;;;;;;;;;;5023590;28;20018;-73
2021/12/26 05:44:49;;;;;;;3.30;2.45;;;;;;;;;;5021142;28;20041;-78
2021/12/26 05:47:15;;;;;;;6.55;2.38;;;;;;;;;;5021506;28;20030;-75
2021/12/26 05:49:41;;;;;;;8.38;2.38;;;;;;;;;;5022465;28;20061;-73
2021/12/26 05:52:15;;;;;;;12.43;3.58;;;;;;;;;;5023967;28;20488;-72
2021/12/26 05:54:41;;;;;;;5.53;2.40;;;;;;;;;;5022126;28;20030;-73
2021/12/26 05:57:07;;;;;;;9.73;2.63;;;;;;;;;;5023705;28;20029;-73
2021/12/26 05:59:33;;;;;;;4.53;2.10;;;;;;;;;;5022156;28;20097;-74
2021/12/26 06:02:00;;;;;;;9.25;2.22;;;;;;;;;;5022345;28;20484;-73
2021/12/26 06:04:26;;;;;;;7.72;2.60;;;;;;;;;;5021143;28;20064;-75
2021/12/26 06:06:53;;;;;;;11.23;2.80;;;;;;;;;;5024955;28;20026;-73
2021/12/26 06:09:19;;;;;;;4.05;2.17;;;;;;;;;;5022699;28;20493;-75
2021/12/26 06:11:45;;;;;;;7.68;2.17;;;;;;;;;;5020486;28;20100;-73
2021/12/26 06:14:11;;;;;;;8.80;2.63;;;;;;;;;;5022680;28;20062;-75
2021/12/26 06:16:37;;;;;;;3.55;2.20;;;;;;;;;;5023035;28;20022;-72
2021/12/26 06:19:03;;;;;;;9.80;2.40;;;;;;;;;;5021406;28;20076;-77
2021/12/26 06:21:29;;;;;;;6.80;2.47;;;;;;;;;;5022130;28;20030;-75
2021/12/26 06:23:55;;;;;;;5.30;2.45;;;;;;;;;;5021990;28;20054;-75
2021/12/26 06:26:22;;;;;;;6.65;2.15;;;;;;;;;;5022114;28;20022;-74
2021/12/26 06:28:49;;;;;;;3.92;2.15;;;;;;;;;;5025620;28;20439;-74
2021/12/26 06:31:18;;;;;;;6.47;2.22;;;;;;;;;;5026105;28;20030;-72
2021/12/26 06:33:46;;;;;;;7.93;2.30;;;;;;;;;;5025785;28;20145;-75
2021/12/26 06:36:13;;;;;;;9.00;3.13;;;;;;;;;;5025867;28;20046;-72
2021/12/26 06:38:40;;;;;;;8.38;2.15;;;;;;;;;;5025290;28;20105;-73
2021/12/26 06:41:07;;;;;;;6.47;2.80;;;;;;;;;;5025811;28;20026;-76
2021/12/26 06:43:34;;;;;;;6.05;2.30;;;;;;;;;;5024945;28;20034;-72
2021/12/26 06:46:01;;;;;;;7.40;2.40;;;;;;;;;;5026348;28;20100;-74
2021/12/26 06:48:30;;;;;;;7.95;3.45;;;;;;;;;;5026403;28;20030;-72
2021/12/26 06:50:59;;;;;;;5.78;2.80;;;;;;;;;;5027641;28;20034;-73
2021/12/26 06:53:28;;;;;;;6.18;2.70;;;;;;;;;;5024726;28;20037;-75
2021/12/26 06:55:54;;;;;;;10.73;2.63;;;;;;;;;;5025765;28;20026;-72
2021/12/26 06:58:20;;;;;;;5.80;2.88;;;;;;;;;;5025774;28;20410;-73
2021/12/26 07:00:47;;;;;;;4.55;2.45;;;;;;;;;;5027267;28;20046;-75
2021/12/26 07:03:13;;;;;;;11.40;2.88;;;;;;;;;;5024541;28;20029;-74
2021/12/26 07:05:40;;;;;;;5.25;2.30;;;;;;;;;;5025463;28;20025;-74
2021/12/26 07:08:07;;;;;;;6.45;2.40;;;;;;;;;;5026688;28;20102;-74
2021/12/26 07:10:33;;;;;;;8.93;2.40;;;;;;;;;;5026168;28;20034;-75
2021/12/26 07:12:59;;;;;;;5.80;2.40;;;;;;;;;;5024834;28;20032;-73
2021/12/26 07:15:28;;;;;;;7.60;2.33;;;;;;;;;;5026212;28;20036;-76
2021/12/26 07:18:06;;;;;;;10.13;2.75;;;;;;;;;;5025567;28;20030;-73
2021/12/26 07:20:32;;;;;;;5.13;2.10;;;;;;;;;;5026367;28;20029;-73
2021/12/26 07:23:01;;;;;;;7.75;2.28;;;;;;;;;;5027249;28;20030;-74
2021/12/26 07:25:27;;;;;;;5.07;2.15;;;;;;;;;;5025994;28;20056;-73
2021/12/26 07:27:54;;;;;;;7.35;2.83;;;;;;;;;;5029347;28;20022;-73
2021/12/26 07:30:20;;;;;;;7.13;2.63;;;;;;;;;;5029656;28;20022;-74
2021/12/26 07:32:49;;;;;;;14.38;3.10;;;;;;;;;;5029269;28;20049;-73
2021/12/26 07:35:15;;;;;;;5.63;2.13;;;;;;;;;;5026778;28;20075;-75
2021/12/26 07:37:50;;;;;;;6.18;2.33;;;;;;;;;;5026025;28;20033;-74
2021/12/26 07:40:16;;;;;;;7.22;3.03;;;;;;;;;;5025829;28;20049;-74
2021/12/26 07:42:42;;;;;;;6.03;2.25;;;;;;;;;;5026544;28;20025;-74
2021/12/26 07:45:14;;;;;;;5.00;2.20;;;;;;;;;;5025816;28;20021;-73
2021/12/26 07:47:41;;;;;;;9.65;3.13;;;;;;;;;;5024382;28;20125;-74
2021/12/26 07:50:10;;;;;;;4.38;1.73;;;;;;;;;;5024807;28;20021;-78
2021/12/26 07:52:42;;;;;;;6.80;2.05;;;;;;;;;;5025751;28;20022;-73
2021/12/26 07:55:13;;;;;;;7.53;2.45;;;;;;;;;;5024195;28;20038;-74
2021/12/26 07:57:48;;;;;;;9.50;2.78;;;;;;;;;;5025303;28;20042;-74
2021/12/26 08:00:21;;;;;;;4.80;2.10;;;;;;;;;;5026449;28;20037;-74
2021/12/26 08:02:48;;;;;;;11.43;2.95;;;;;;;;;;5024978;28;20030;-73
2021/12/26 08:05:15;;;;;;;3.08;2.20;;;;;;;;;;5024706;28;20088;-75
2021/12/26 08:07:41;;;;;;;5.88;2.10;;;;;;;;;;5024024;28;20113;-75
2021/12/26 08:10:10;;;;;;;3.53;2.20;;;;;;;;;;5023572;28;20521;-77
2021/12/26 08:12:37;;;;;;;9.93;2.33;;;;;;;;;;5024597;28;20033;-74
2021/12/26 08:15:07;;;;;;;5.60;4.05;;;;;;;;;;5023991;28;20032;-72
2021/12/26 08:17:35;;;;;;;8.70;2.22;;;;;;;;;;5022539;28;20038;-73
2021/12/26 08:20:13;;;;;;;10.80;3.15;;;;;;;;;;5024159;28;20026;-73
2021/12/26 08:22:39;;;;;;;7.97;2.30;;;;;;;;;;5024368;28;20029;-74
2021/12/26 08:25:06;;;;;;;8.80;2.63;;;;;;;;;;5025727;28;20025;-75
2021/12/26 08:27:32;;;;;;;5.78;2.50;;;;;;;;;;5024667;28;20037;-75
2021/12/26 08:29:59;;;;;;;12.73;2.20;;;;;;;;;;5024767;28;20385;-75
2021/12/26 08:32:26;;;;;;;9.98;2.45;;;;;;;;;;5024236;28;20029;-74
2021/12/26 08:34:55;;;;;;;8.57;2.17;;;;;;;;;;5025049;28;20022;-73
2021/12/26 08:37:23;;;;;;;6.10;2.50;;;;;;;;;;5024908;28;20026;-74
2021/12/26 08:39:59;;;;;;;6.78;2.17;;;;;;;;;;5025340;28;20026;-75
2021/12/26 08:42:29;;;;;;;10.57;2.50;;;;;;;;;;5023852;28;20025;-73
2021/12/26 08:44:58;;;;;;;5.43;2.10;;;;;;;;;;5024281;28;20042;-76
2021/12/26 08:47:24;;;;;;;2.67;2.42;;;;;;;;;;5023197;28;20057;-74
2021/12/26 08:49:50;;;;;;;13.63;3.03;;;;;;;;;;5023293;28;20026;-73
2021/12/26 08:52:16;;;;;;;11.55;2.58;;;;;;;;;;5023441;28;20030;-74
2021/12/26 08:55:00;;;;;;;9.90;2.58;;;;;;;;;;5024267;28;20082;-74
2021/12/26 08:57:26;;;;;;;5.03;2.42;;;;;;;;;;5022907;28;20073;-75
2021/12/26 08:59:52;;;;;;;12.82;2.90;;;;;;;;;;5023145;28;20053;-72
2021/12/26 09:02:19;;;;;;;7.93;2.90;;;;;;;;;;5025283;28;20022;-71
2021/12/26 09:04:45;;;;;;;10.95;3.10;;;;;;;;;;5026838;28;20038;-72
2021/12/26 09:07:11;;;;;;;5.85;2.33;;;;;;;;;;5026454;28;20148;-76
2021/12/26 09:09:38;;;;;;;4.47;2.20;;;;;;;;;;5026123;28;20033;-73
2021/12/26 09:12:04;;;;;;;10.27;3.10;;;;;;;;;;5025840;28;20389;-72
2021/12/26 09:14:31;;;;;;;9.60;3.25;;;;;;;;;;5025333;28;20034;-71
2021/12/26 09:16:58;;;;;;;10.20;3.15;;;;;;;;;;5026171;28;20476;-71
2021/12/26 09:19:27;;;;;;;10.05;2.92;;;;;;;;;;5023633;28;20026;-72
2021/12/26 09:21:53;;;;;;;6.90;3.17;;;;;;;;;;5022907;28;20069;-73
2021/12/26 09:24:19;;;;;;;9.10;2.67;;;;;;;;;;5022818;28;20046;-73
2021/12/26 09:26:54;;;;;;;8.48;2.28;;;;;;;;;;5022132;28;20057;-76
2021/12/26 09:29:20;;;;;;;11.18;2.58;;;;;;;;;;5022894;28;20386;-73
2021/12/26 09:31:47;;;;;;;4.85;2.08;;;;;;;;;;5022253;28;20034;-75
2021/12/26 09:34:13;;;;;;;6.30;2.10;;;;;;;;;;5023257;28;20030;-73
2021/12/26 09:36:39;;;;;;;13.73;3.25;;;;;;;;;;5022930;28;20068;-73
2021/12/26 09:39:05;;;;;;;7.07;2.40;;;;;;;;;;5021932;28;20034;-72
2021/12/26 09:41:32;;;;;;;14.07;2.53;;;;;;;;;;5023327;28;20030;-75
2021/12/26 09:43:59;;;;;;;8.23;2.65;;;;;;;;;;5021793;28;20113;-75
2021/12/26 09:46:29;;;;;;;8.18;4.47;;;;;;;;;;5023064;28;20033;-75
2021/12/26 09:48:58;;;;;;;11.35;2.85;;;;;;;;;;5021861;28;20080;-73
2021/12/26 09:51:25;;;;;;;5.10;2.63;;;;;;;;;;5023393;28;20401;-72
2021/12/26 09:53:51;;;;;;;13.15;3.30;;;;;;;;;;5023906;28;20572;-76
2021/12/26 09:56:18;;;;;;;6.93;2.67;;;;;;;;;;5024867;28;20030;-72
2021/12/26 09:59:31;;;;;;;6.75;2.60;;;;;;;;;;5021576;28;20036;-74
2021/12/26 10:02:06;;;;;;;7.18;2.30;;;;;;;;;;5035919;28;20100;-72
2021/12/26 10:04:33;;;;;;;7.90;2.55;;;;;;;;;;5026845;28;20080;-74
2021/12/26 10:07:14;;;;;;;11.05;2.78;;;;;;;;;;5025920;28;20086;-73
2021/12/26 10:09:48;;;;;;;7.28;3.17;;;;;;;;;;5027482;28;20026;-73
2021/12/26 10:12:20;;;;;;;9.55;3.40;;;;;;;;;;5027018;28;20030;-75
2021/12/26 10:14:50;;;;;;;8.60;1.95;;;;;;;;;;5025868;28;20037;-74
2021/12/26 10:17:23;;;;;;;9.25;2.97;;;;;;;;;;5026399;28;20072;-73
2021/12/26 10:19:50;;;;;;;9.77;2.47;;;;;;;;;;5025798;28;20022;-76
2021/12/26 10:22:26;;;;;;;7.45;2.58;;;;;;;;;;5026825;28;20021;-75
2021/12/26 10:24:52;;;;;;;5.78;2.20;;;;;;;;;;5027562;28;20049;-75
2021/12/26 10:27:31;;;;;;;6.57;2.17;;;;;;;;;;5027520;28;20034;-73
2021/12/26 10:30:35;;;;;;;8.27;2.55;;;;;;;;;;5026886;28;20022;-75
2021/12/26 10:33:01;;;;;;;6.50;3.35;;;;;;;;;;4985627;28;20035;-72
2021/12/26 10:35:28;;;;;;;6.05;2.40;;;;;;;;;;4985700;28;20031;-74
2021/12/26 10:38:05;;;;;;;7.32;2.40;;;;;;;;;;5024634;28;20056;-74
2021/12/26 10:40:31;;;;;;;7.00;2.88;;;;;;;;;;5026502;28;20109;-72
2021/12/26 10:43:01;;;;;;;5.72;3.88;;;;;;;;;;5028111;28;20061;-72
2021/12/26 10:45:34;;;;;;;6.88;2.30;;;;;;;;;;5028253;28;20045;-74
2021/12/26 10:48:01;;;;;;;8.13;2.25;;;;;;;;;;5029147;28;20080;-73
2021/12/26 10:50:32;;;;;;;6.38;2.50;;;;;;;;;;5028477;28;20022;-75
2021/12/26 10:52:59;;;;;;;9.48;3.13;;;;;;;;;;5028695;28;20018;-71
2021/12/26 10:55:38;;;;;;;8.20;2.80;;;;;;;;;;5027652;28;20028;-75
2021/12/26 10:58:14;;;;;;;6.15;2.10;;;;;;;;;;5026531;28;20469;-74
2021/12/26 11:04:05;;;;;;;5.78;2.75;;;;;;;;;;5019033;28;20500;-73
2021/12/26 11:06:41;;;;;;;5.60;2.28;;;;;;;;;;5028290;28;20117;-73
2021/12/26 11:09:19;;;;;;;6.15;2.47;;;;;;;;;;5026729;28;20527;-73
2021/12/26 11:12:01;;;;;;;9.80;2.63;;;;;;;;;;5027437;28;20503;-73
2021/12/26 11:14:30;;;;;;;4.00;2.47;;;;;;;;;;5026971;28;20030;-73
2021/12/26 11:17:06;;;;;;;;;;;;;;;;;;;;;
2021/12/26 11:19:43;;;;;;;8.15;2.40;;;;;;;;;;5028883;28;20050;-74
2021/12/26 11:22:10;;;;;;;8.35;2.35;;;;;;;;;;5027695;28;20030;-72
2021/12/26 11:24:36;;;;;;;11.32;2.63;;;;;;;;;;5028071;28;20116;-72
2021/12/26 11:27:03;;;;;;;6.60;2.58;;;;;;;;;;5028306;28;20065;-73
2021/12/26 11:29:29;;;;;;;5.45;2.45;;;;;;;;;;5028257;28;20073;-75
2021/12/26 11:31:56;;;;;;;7.57;2.83;;;;;;;;;;5028645;28;20480;-73
2021/12/26 11:34:22;;;;;;;8.02;2.53;;;;;;;;;;5027862;28;20029;-71
2021/12/26 11:36:52;;;;;;;4.57;2.38;;;;;;;;;;5027952;28;20040;-72
2021/12/26 11:39:18;;;;;;;4.03;1.80;;;;;;;;;;5027795;28;20033;-71
2021/12/26 11:41:50;;;;;;;5.57;2.65;;;;;;;;;;5028163;28;20029;-73
2021/12/26 11:44:23;;;;;;;4.15;2.40;;;;;;;;;;5027539;28;20378;-73
2021/12/26 11:47:08;;;;;;;4.72;2.50;;;;;;;;;;5030166;28;20033;-72
2021/12/26 11:50:01;;;;;;;5.97;2.33;;;;;;;;;;5029702;28;20465;-73
2021/12/26 11:52:42;;;;;;;8.10;3.10;;;;;;;;;;5028197;28;20090;-72
2021/12/26 11:55:09;;;;;;;11.00;2.30;;;;;;;;;;5028389;28;20034;-72
2021/12/26 11:57:52;;;;;;;8.38;2.40;;;;;;;;;;5028368;28;20018;-72
2021/12/26 12:00:24;;;;;;;6.95;2.42;;;;;;;;;;5027727;28;20052;-72
2021/12/26 12:02:55;;;;;;;10.13;3.65;;;;;;;;;;5028196;28;20033;-73
2021/12/26 12:05:24;;;;;;;9.38;2.50;;;;;;;;;;5028737;28;20434;-71
2021/12/26 12:07:59;;;;;;;12.50;2.92;;;;;;;;;;5028150;28;20030;-74
2021/12/26 12:10:25;;;;;;;;;;;;;;;;;;5027978;28;20034;-75
2021/12/26 12:12:51;;;;;;;6.85;2.55;;;;;;;;;;5027977;28;20000;-72
2021/12/26 12:15:40;;;;;;;6.55;3.33;;;;;;;;;;5027932;28;20034;-73
2021/12/26 12:18:39;;;;;;;6.60;3.15;;;;;;;;;;5028200;28;20080;-73
2021/12/26 12:21:08;;;;;;;6.15;2.35;;;;;;;;;;5007162;28;20038;-71
2021/12/26 12:23:34;;;;;;;5.78;2.22;;;;;;;;;;5018031;28;20454;-73
2021/12/26 12:26:00;;;;;;;6.50;2.88;;;;;;;;;;5007207;28;20089;-71
2021/12/26 12:28:28;;;;;;;5.97;3.83;;;;;;;;;;5008899;28;20036;-72
2021/12/26 12:31:13;;;;;;;11.55;8.93;;;;;;;;;;5007988;28;20027;-72
2021/12/26 12:33:47;;;;;;;11.20;7.00;;;;;;;;;;5008318;28;20034;-71
2021/12/26 12:36:36;;;;;;;14.40;10.00;;;;;;;;;;5008260;28;20027;-73
2021/12/26 12:39:19;;;;;;;35.47;21.58;;;;;;;;;;5006005;28;20027;-72
2021/12/26 12:41:47;;;;;;;21.98;12.52;;;;;;;;;;5008999;28;20022;-73
2021/12/26 12:44:25;;;;;;;17.08;9.13;;;;;;;;;;5008505;28;20030;-71
2021/12/26 12:46:53;;;;;;;37.22;22.52;;;;;;;;;;5007787;28;20041;-73
2021/12/26 12:49:22;;;;;;;10.07;5.43;;;;;;;;;;5007455;28;20093;-72
2021/12/26 12:51:53;;;;;;;11.05;7.32;;;;;;;;;;5008428;28;20023;-73
2021/12/26 12:54:32;;;;;;;4.35;3.20;;;;;;;;;;5007753;28;20023;-73
2021/12/26 12:57:04;;;;;;;9.65;4.00;;;;;;;;;;5007491;28;20038;-72
2021/12/26 12:59:38;;;;;;;5.80;2.53;;;;;;;;;;5008829;28;20022;-72
2021/12/26 13:02:12;;;;;;;7.50;3.20;;;;;;;;;;5008056;28;20038;-73
2021/12/26 13:04:44;;;;;;;8.32;4.28;;;;;;;;;;5007152;28;20026;-72
2021/12/26 13:07:14;;;;;;;8.05;2.97;;;;;;;;;;5007480;28;20058;-72
2021/12/26 13:09:47;;;;;;;4.22;2.58;;;;;;;;;;5007292;28;20026;-73
2021/12/26 13:12:22;;;;;;;5.63;2.88;;;;;;;;;;5008020;28;20026;-72
2021/12/26 13:14:54;;;;;;;6.38;3.05;;;;;;;;;;5007978;28;20034;-71
2021/12/26 13:17:37;;;;;;;5.68;2.58;;;;;;;;;;5008542;28;20030;-71
2021/12/26 13:20:17;;;;;;;7.13;3.25;;;;;;;;;;5008574;28;20058;-73
2021/12/26 13:22:46;;;;;;;7.35;2.80;;;;;;;;;;5023580;28;20034;-72
2021/12/26 13:25:24;;;;;;;7.63;2.78;;;;;;;;;;5008158;28;20054;-72
2021/12/26 13:27:50;;;;;;;7.55;3.40;;;;;;;;;;5008640;28;20030;-72
2021/12/26 13:30:16;;;;;;;5.40;3.22;;;;;;;;;;5006923;28;20030;-73
2021/12/26 13:32:43;;;;;;;8.23;3.28;;;;;;;;;;5007085;28;20026;-73
2021/12/26 13:35:09;;;;;;;6.20;2.90;;;;;;;;;;5006960;28;20441;-72
2021/12/26 13:37:36;;;;;;;5.22;2.75;;;;;;;;;;5011446;28;20061;-71
2021/12/26 13:40:05;;;;;;;7.90;3.10;;;;;;;;;;5011623;28;20030;-72
2021/12/26 13:42:31;;;;;;;7.90;3.00;;;;;;;;;;5010677;28;20061;-73
2021/12/26 13:44:58;;;;;;;8.43;2.92;;;;;;;;;;5010140;28;20027;-72
2021/12/26 13:47:24;;;;;;;4.60;2.22;;;;;;;;;;5010690;28;20030;-73
2021/12/26 13:50:04;;;;;;;4.65;2.67;;;;;;;;;;5010365;28;20046;-72
2021/12/26 13:52:30;;;;;;;6.47;3.45;;;;;;;;;;5010410;28;20481;-74
2021/12/26 13:55:02;;;;;;;5.72;2.72;;;;;;;;;;5011152;28;20027;-71
2021/12/26 13:57:41;;;;;;;7.72;3.58;;;;;;;;;;5010818;28;20022;-73
2021/12/26 14:00:08;;;;;;;8.85;3.83;;;;;;;;;;5010724;28;20061;-73
2021/12/26 14:02:35;;;;;;;8.23;4.20;;;;;;;;;;5010813;28;20019;-72
2021/12/26 14:05:09;;;;;;;6.65;4.45;;;;;;;;;;5010387;28;20389;-71
2021/12/26 14:07:49;;;;;;;7.65;3.88;;;;;;;;;;5026541;28;20034;-72
2021/12/26 14:10:17;;;;;;;5.53;2.88;;;;;;;;;;5011083;28;20069;-71
2021/12/26 14:12:46;;;;;;;4.78;3.03;;;;;;;;;;5011027;28;20084;-75
2021/12/26 14:15:25;;;;;;;5.97;3.25;;;;;;;;;;5010951;28;20037;-73
2021/12/26 14:17:53;;;;;;;4.95;3.33;;;;;;;;;;5010451;28;20062;-71
2021/12/26 14:20:19;;;;;;;5.25;2.97;;;;;;;;;;5010560;28;20497;-72
2021/12/26 14:22:45;;;;;;;5.45;3.50;;;;;;;;;;5009787;28;20026;-71
2021/12/26 14:25:11;;;;;;;7.25;3.13;;;;;;;;;;5026547;28;20052;-73
2021/12/26 14:27:38;;;;;;;6.63;3.55;;;;;;;;;;5010777;28;20114;-74
2021/12/26 14:30:04;;;;;;;7.07;4.30;;;;;;;;;;5027245;28;20035;-72
2021/12/26 14:32:30;;;;;;;4.85;2.67;;;;;;;;;;5009873;28;20435;-72
2021/12/26 14:34:59;;;;;;;4.75;2.17;;;;;;;;;;5025467;28;20090;-73
2021/12/26 14:37:38;;;;;;;8.57;3.17;;;;;;;;;;5024758;28;20029;-72
2021/12/26 14:40:14;;;;;;;6.78;3.45;;;;;;;;;;5010936;28;20030;-74
2021/12/26 14:42:44;;;;;;;4.30;2.40;;;;;;;;;;5009154;28;20038;-74
2021/12/26 14:45:14;;;;;;;3.65;2.75;;;;;;;;;;5009992;28;20052;-72
2021/12/26 14:47:42;;;;;;;4.30;3.05;;;;;;;;;;5024110;28;20161;-72
2021/12/26 14:50:19;;;;;;;4.53;2.75;;;;;;;;;;5024610;28;20370;-75
2021/12/26 14:52:55;;;;;;;5.32;4.82;;;;;;;;;;5006836;28;20057;-74
2021/12/26 14:55:35;;;;;;;4.93;2.95;;;;;;;;;;5008105;28;20042;-74
2021/12/26 14:58:17;;;;;;;9.10;5.47;;;;;;;;;;5006894;28;20045;-72
2021/12/26 15:00:53;;;;;;;6.63;4.80;;;;;;;;;;5006699;28;20070;-73
2021/12/26 15:03:32;;;;;;;9.20;5.43;;;;;;;;;;5006871;28;20516;-72
2021/12/26 15:06:15;;;;;;;9.77;7.38;;;;;;;;;;5007247;28;20030;-75